Union, Connecticut
Current Conditions -  °F | °C
As of 12:12 AM on Saturday 25 Oct 2014 (Local Time) from KIJD Reporting Station
Scattered Clouds Scattered Clouds  
Wind Chill: 50°   Ceiling: Unl
Heat Index: 50°   Visibility: 10mi
Dew Point: 42°   Wind: 5mph
Humidity: 74%   Direction: 310°NW
Pressure: 29.78"   Gusts: NA
Location:  41.9885°N, 72.2592°W
Report Text: KIJD 250412Z AUTO 31004KT 10SM SCT029 10/06 A2978 RMK AO2 T01000056
Loading
Personal Weather Stations






























Interactive Weather Map
Tropical Storm Tracking
New forecast layout! Learn more

10-Day Weather Forecast

Advertisements
Track Severe Weather on mobile